sensor_id;sensor_type;location;lat;lon;timestamp;temperature;humidity
3017;DHT22;1518;52.408;13.060;2022-10-16T00:02:45;15.60;99.90
3017;DHT22;1518;52.408;13.060;2022-10-16T00:05:38;15.60;99.90
3017;DHT22;1518;52.408;13.060;2022-10-16T00:08:27;15.60;99.90
3017;DHT22;1518;52.408;13.060;2022-10-16T00:11:17;15.60;99.90
3017;DHT22;1518;52.408;13.060;2022-10-16T00:14:08;15.60;99.90
3017;DHT22;1518;52.408;13.060;2022-10-16T00:16:57;15.70;99.90
3017;DHT22;1518;52.408;13.060;2022-10-16T00:19:46;15.70;99.90
3017;DHT22;1518;52.408;13.060;2022-10-16T00:22:34;15.70;99.90
3017;DHT22;1518;52.408;13.060;2022-10-16T00:25:22;15.70;99.90
3017;DHT22;1518;52.408;13.060;2022-10-16T00:28:10;15.80;99.90
3017;DHT22;1518;52.408;13.060;2022-10-16T00:30:59;15.80;99.90
3017;DHT22;1518;52.408;13.060;2022-10-16T00:33:47;15.80;99.90
3017;DHT22;1518;52.408;13.060;2022-10-16T00:36:36;15.80;99.90
3017;DHT22;1518;52.408;13.060;2022-10-16T00:39:24;15.80;99.90
3017;DHT22;1518;52.408;13.060;2022-10-16T00:42:15;15.80;99.90
3017;DHT22;1518;52.408;13.060;2022-10-16T00:45:04;15.80;99.90
3017;DHT22;1518;52.408;13.060;2022-10-16T00:47:54;15.80;99.90
3017;DHT22;1518;52.408;13.060;2022-10-16T00:50:43;15.80;99.90
3017;DHT22;1518;52.408;13.060;2022-10-16T00:53:32;15.70;99.90
3017;DHT22;1518;52.408;13.060;2022-10-16T00:56:21;15.80;99.90
3017;DHT22;1518;52.408;13.060;2022-10-16T00:59:15;15.80;99.90
3017;DHT22;1518;52.408;13.060;2022-10-16T01:02:05;15.80;99.90
3017;DHT22;1518;52.408;13.060;2022-10-16T01:04:54;15.70;99.90
3017;DHT22;1518;52.408;13.060;2022-10-16T01:07:48;15.70;99.90
3017;DHT22;1518;52.408;13.060;2022-10-16T01:10:43;15.70;99.90
3017;DHT22;1518;52.408;13.060;2022-10-16T01:13:41;15.70;99.90
3017;DHT22;1518;52.408;13.060;2022-10-16T01:16:34;15.70;99.90
3017;DHT22;1518;52.408;13.060;2022-10-16T01:19:38;15.60;99.90
3017;DHT22;1518;52.408;13.060;2022-10-16T01:22:35;15.60;99.90
3017;DHT22;1518;52.408;13.060;2022-10-16T01:25:29;15.60;99.90
3017;DHT22;1518;52.408;13.060;2022-10-16T01:28:22;15.60;99.90
3017;DHT22;1518;52.408;13.060;2022-10-16T01:31:15;15.60;99.90
3017;DHT22;1518;52.408;13.060;2022-10-16T01:34:06;15.60;99.90
3017;DHT22;1518;52.408;13.060;2022-10-16T01:37:02;15.50;99.90
3017;DHT22;1518;52.408;13.060;2022-10-16T01:39:55;15.50;99.90
3017;DHT22;1518;52.408;13.060;2022-10-16T01:42:48;15.50;99.90
3017;DHT22;1518;52.408;13.060;2022-10-16T01:45:41;15.50;99.90
3017;DHT22;1518;52.408;13.060;2022-10-16T01:48:31;15.60;99.90
3017;DHT22;1518;52.408;13.060;2022-10-16T01:51:22;15.60;99.90
3017;DHT22;1518;52.408;13.060;2022-10-16T01:54:13;15.50;99.90
3017;DHT22;1518;52.408;13.060;2022-10-16T01:57:04;15.60;99.90
3017;DHT22;1518;52.408;13.060;2022-10-16T01:59:56;15.60;99.90
3017;DHT22;1518;52.408;13.060;2022-10-16T02:02:49;15.60;99.90
3017;DHT22;1518;52.408;13.060;2022-10-16T02:05:42;15.60;99.90
3017;DHT22;1518;52.408;13.060;2022-10-16T02:08:34;15.60;99.90
3017;DHT22;1518;52.408;13.060;2022-10-16T02:11:23;15.70;99.90
3017;DHT22;1518;52.408;13.060;2022-10-16T02:14:11;15.60;99.90
3017;DHT22;1518;52.408;13.060;2022-10-16T02:16:59;15.70;99.90
3017;DHT22;1518;52.408;13.060;2022-10-16T02:19:49;15.70;99.90
3017;DHT22;1518;52.408;13.060;2022-10-16T02:22:42;15.60;99.90
3017;DHT22;1518;52.408;13.060;2022-10-16T02:25:33;15.60;99.90
3017;DHT22;1518;52.408;13.060;2022-10-16T02:28:26;15.50;99.90
3017;DHT22;1518;52.408;13.060;2022-10-16T02:31:18;15.60;99.90
3017;DHT22;1518;52.408;13.060;2022-10-16T02:34:09;15.50;99.90
3017;DHT22;1518;52.408;13.060;2022-10-16T02:37:01;15.50;99.90
3017;DHT22;1518;52.408;13.060;2022-10-16T02:39:51;15.50;99.90
3017;DHT22;1518;52.408;13.060;2022-10-16T02:42:40;15.50;99.90
3017;DHT22;1518;52.408;13.060;2022-10-16T02:45:28;15.50;99.90
3017;DHT22;1518;52.408;13.060;2022-10-16T02:48:16;15.50;99.90
3017;DHT22;1518;52.408;13.060;2022-10-16T02:51:05;15.50;99.90
3017;DHT22;1518;52.408;13.060;2022-10-16T02:53:55;15.50;99.90
3017;DHT22;1518;52.408;13.060;2022-10-16T02:56:43;15.30;99.90
3017;DHT22;1518;52.408;13.060;2022-10-16T02:59:31;15.40;99.90
3017;DHT22;1518;52.408;13.060;2022-10-16T03:02:19;15.50;99.90
3017;DHT22;1518;52.408;13.060;2022-10-16T03:05:08;15.40;99.90
3017;DHT22;1518;52.408;13.060;2022-10-16T03:07:56;15.40;99.90
3017;DHT22;1518;52.408;13.060;2022-10-16T03:10:48;15.30;99.90
3017;DHT22;1518;52.408;13.060;2022-10-16T03:13:36;15.40;99.90
3017;DHT22;1518;52.408;13.060;2022-10-16T03:16:24;15.30;99.90
3017;DHT22;1518;52.408;13.060;2022-10-16T03:19:12;15.20;99.90
3017;DHT22;1518;52.408;13.060;2022-10-16T03:22:00;15.20;99.90
3017;DHT22;1518;52.408;13.060;2022-10-16T03:24:48;15.20;99.90
3017;DHT22;1518;52.408;13.060;2022-10-16T03:27:37;15.20;99.90
3017;DHT22;1518;52.408;13.060;2022-10-16T03:30:25;15.20;99.90
3017;DHT22;1518;52.408;13.060;2022-10-16T03:33:13;15.20;99.90
3017;DHT22;1518;52.408;13.060;2022-10-16T03:36:01;15.30;99.90
3017;DHT22;1518;52.408;13.060;2022-10-16T03:38:49;15.20;99.90
3017;DHT22;1518;52.408;13.060;2022-10-16T03:41:37;15.40;99.90
3017;DHT22;1518;52.408;13.060;2022-10-16T03:44:26;15.10;99.90
3017;DHT22;1518;52.408;13.060;2022-10-16T03:47:14;15.20;99.90
3017;DHT22;1518;52.408;13.060;2022-10-16T03:50:08;15.10;99.90
3017;DHT22;1518;52.408;13.060;2022-10-16T03:52:56;15.20;99.90
3017;DHT22;1518;52.408;13.060;2022-10-16T03:55:44;15.10;99.90
3017;DHT22;1518;52.408;13.060;2022-10-16T03:58:32;15.20;99.90
3017;DHT22;1518;52.408;13.060;2022-10-16T04:01:22;15.20;99.90
3017;DHT22;1518;52.408;13.060;2022-10-16T04:04:10;15.20;99.90
3017;DHT22;1518;52.408;13.060;2022-10-16T04:06:58;15.20;99.90
3017;DHT22;1518;52.408;13.060;2022-10-16T04:09:46;15.20;99.90
3017;DHT22;1518;52.408;13.060;2022-10-16T04:12:34;15.30;99.90
3017;DHT22;1518;52.408;13.060;2022-10-16T04:15:23;15.10;99.90
3017;DHT22;1518;52.408;13.060;2022-10-16T04:18:12;15.10;99.90
3017;DHT22;1518;52.408;13.060;2022-10-16T04:21:03;15.10;99.90
3017;DHT22;1518;52.408;13.060;2022-10-16T04:23:51;15.20;99.90
3017;DHT22;1518;52.408;13.060;2022-10-16T04:26:39;15.00;99.90
3017;DHT22;1518;52.408;13.060;2022-10-16T04:29:27;15.10;99.90
3017;DHT22;1518;52.408;13.060;2022-10-16T04:32:15;15.00;99.90
3017;DHT22;1518;52.408;13.060;2022-10-16T04:35:05;15.00;99.90
3017;DHT22;1518;52.408;13.060;2022-10-16T04:37:53;15.00;99.90
3017;DHT22;1518;52.408;13.060;2022-10-16T04:40:42;15.00;99.90
3017;DHT22;1518;52.408;13.060;2022-10-16T04:43:30;15.00;99.90
3017;DHT22;1518;52.408;13.060;2022-10-16T04:46:18;15.00;99.90
3017;DHT22;1518;52.408;13.060;2022-10-16T04:49:06;14.90;99.90
3017;DHT22;1518;52.408;13.060;2022-10-16T04:51:55;14.90;99.90
3017;DHT22;1518;52.408;13.060;2022-10-16T04:54:43;14.90;99.90
3017;DHT22;1518;52.408;13.060;2022-10-16T04:57:32;14.90;99.90
3017;DHT22;1518;52.408;13.060;2022-10-16T05:00:20;14.90;99.90
3017;DHT22;1518;52.408;13.060;2022-10-16T05:03:09;14.90;99.90
3017;DHT22;1518;52.408;13.060;2022-10-16T05:05:57;14.90;99.90
3017;DHT22;1518;52.408;13.060;2022-10-16T05:08:46;14.90;99.90
3017;DHT22;1518;52.408;13.060;2022-10-16T05:11:34;14.90;99.90
3017;DHT22;1518;52.408;13.060;2022-10-16T05:14:22;15.00;99.90
3017;DHT22;1518;52.408;13.060;2022-10-16T05:17:11;14.90;99.90
3017;DHT22;1518;52.408;13.060;2022-10-16T05:19:59;14.90;99.90
3017;DHT22;1518;52.408;13.060;2022-10-16T05:22:47;14.90;99.90
3017;DHT22;1518;52.408;13.060;2022-10-16T05:25:36;14.90;99.90
3017;DHT22;1518;52.408;13.060;2022-10-16T05:28:25;14.90;99.90
3017;DHT22;1518;52.408;13.060;2022-10-16T05:31:13;14.90;99.90
3017;DHT22;1518;52.408;13.060;2022-10-16T05:34:02;14.80;99.90
3017;DHT22;1518;52.408;13.060;2022-10-16T05:36:50;14.80;99.90
3017;DHT22;1518;52.408;13.060;2022-10-16T05:39:38;14.80;99.90
3017;DHT22;1518;52.408;13.060;2022-10-16T05:42:28;14.80;99.90
3017;DHT22;1518;52.408;13.060;2022-10-16T05:45:16;14.90;99.90
3017;DHT22;1518;52.408;13.060;2022-10-16T05:48:04;14.80;99.90
3017;DHT22;1518;52.408;13.060;2022-10-16T05:50:57;14.80;99.90
3017;DHT22;1518;52.408;13.060;2022-10-16T05:53:45;14.80;99.90
3017;DHT22;1518;52.408;13.060;2022-10-16T05:56:33;14.80;99.90
3017;DHT22;1518;52.408;13.060;2022-10-16T05:59:23;14.90;99.90
3017;DHT22;1518;52.408;13.060;2022-10-16T06:02:13;14.90;99.90
3017;DHT22;1518;52.408;13.060;2022-10-16T06:05:01;14.80;99.90
3017;DHT22;1518;52.408;13.060;2022-10-16T06:07:49;14.90;99.90
3017;DHT22;1518;52.408;13.060;2022-10-16T06:10:37;14.90;99.90
3017;DHT22;1518;52.408;13.060;2022-10-16T06:13:25;15.00;99.90
3017;DHT22;1518;52.408;13.060;2022-10-16T06:16:14;14.90;99.90
3017;DHT22;1518;52.408;13.060;2022-10-16T06:19:03;14.90;99.90
3017;DHT22;1518;52.408;13.060;2022-10-16T06:21:53;14.90;99.90
3017;DHT22;1518;52.408;13.060;2022-10-16T06:24:41;14.90;99.90
3017;DHT22;1518;52.408;13.060;2022-10-16T06:27:29;15.00;99.90
3017;DHT22;1518;52.408;13.060;2022-10-16T06:30:17;15.00;99.90
3017;DHT22;1518;52.408;13.060;2022-10-16T06:33:06;15.00;99.90
3017;DHT22;1518;52.408;13.060;2022-10-16T06:36:00;15.00;99.90
3017;DHT22;1518;52.408;13.060;2022-10-16T06:38:48;15.00;99.90
3017;DHT22;1518;52.408;13.060;2022-10-16T06:41:36;15.00;99.90
3017;DHT22;1518;52.408;13.060;2022-10-16T06:44:24;15.20;99.90
3017;DHT22;1518;52.408;13.060;2022-10-16T06:47:13;15.20;99.90
3017;DHT22;1518;52.408;13.060;2022-10-16T06:50:02;15.20;99.90
3017;DHT22;1518;52.408;13.060;2022-10-16T06:52:53;15.20;99.90
3017;DHT22;1518;52.408;13.060;2022-10-16T06:55:41;15.30;99.90
3017;DHT22;1518;52.408;13.060;2022-10-16T06:58:29;15.30;99.90
3017;DHT22;1518;52.408;13.060;2022-10-16T07:01:18;15.40;99.90
3017;DHT22;1518;52.408;13.060;2022-10-16T07:04:07;15.50;99.90
3017;DHT22;1518;52.408;13.060;2022-10-16T07:06:56;15.60;99.90
3017;DHT22;1518;52.408;13.060;2022-10-16T07:09:44;15.70;99.90
3017;DHT22;1518;52.408;13.060;2022-10-16T07:12:32;15.70;99.90
3017;DHT22;1518;52.408;13.060;2022-10-16T07:15:20;15.70;99.90
3017;DHT22;1518;52.408;13.060;2022-10-16T07:18:08;15.80;99.90
3017;DHT22;1518;52.408;13.060;2022-10-16T07:21:03;15.90;99.90
3017;DHT22;1518;52.408;13.060;2022-10-16T07:23:53;15.90;99.90
3017;DHT22;1518;52.408;13.060;2022-10-16T07:26:42;16.00;99.90
3017;DHT22;1518;52.408;13.060;2022-10-16T07:29:31;16.00;99.90
3017;DHT22;1518;52.408;13.060;2022-10-16T07:32:19;16.00;99.90
3017;DHT22;1518;52.408;13.060;2022-10-16T07:35:07;16.00;99.90
3017;DHT22;1518;52.408;13.060;2022-10-16T07:37:55;16.10;99.90
3017;DHT22;1518;52.408;13.060;2022-10-16T07:40:45;16.10;99.90
3017;DHT22;1518;52.408;13.060;2022-10-16T07:43:33;16.10;99.90
3017;DHT22;1518;52.408;13.060;2022-10-16T07:46:22;16.20;99.90
3017;DHT22;1518;52.408;13.060;2022-10-16T07:49:10;16.20;99.90
3017;DHT22;1518;52.408;13.060;2022-10-16T07:51:58;16.20;99.90
3017;DHT22;1518;52.408;13.060;2022-10-16T07:54:46;16.30;99.90
3017;DHT22;1518;52.408;13.060;2022-10-16T07:57:36;16.30;99.90
3017;DHT22;1518;52.408;13.060;2022-10-16T08:00:24;16.30;99.90
3017;DHT22;1518;52.408;13.060;2022-10-16T08:03:12;16.40;99.90
3017;DHT22;1518;52.408;13.060;2022-10-16T08:06:01;16.50;99.90
3017;DHT22;1518;52.408;13.060;2022-10-16T08:08:49;16.50;99.90
3017;DHT22;1518;52.408;13.060;2022-10-16T08:11:37;16.50;99.90
3017;DHT22;1518;52.408;13.060;2022-10-16T08:14:26;16.60;99.90
3017;DHT22;1518;52.408;13.060;2022-10-16T08:17:15;16.60;99.90
3017;DHT22;1518;52.408;13.060;2022-10-16T08:20:04;16.60;99.90
3017;DHT22;1518;52.408;13.060;2022-10-16T08:22:52;16.60;99.90
3017;DHT22;1518;52.408;13.060;2022-10-16T08:25:41;16.60;99.90
3017;DHT22;1518;52.408;13.060;2022-10-16T08:28:30;16.60;99.90
3017;DHT22;1518;52.408;13.060;2022-10-16T08:31:20;16.60;99.90
3017;DHT22;1518;52.408;13.060;2022-10-16T08:34:08;16.70;99.90
3017;DHT22;1518;52.408;13.060;2022-10-16T08:36:56;16.70;99.90
3017;DHT22;1518;52.408;13.060;2022-10-16T08:39:44;16.70;99.90
3017;DHT22;1518;52.408;13.060;2022-10-16T08:42:45;16.70;99.90
3017;DHT22;1518;52.408;13.060;2022-10-16T08:45:47;16.80;99.90
3017;DHT22;1518;52.408;13.060;2022-10-16T08:48:45;16.80;99.90
3017;DHT22;1518;52.408;13.060;2022-10-16T08:51:36;16.90;99.90
3017;DHT22;1518;52.408;13.060;2022-10-16T08:54:31;16.90;99.90
3017;DHT22;1518;52.408;13.060;2022-10-16T08:57:24;17.00;99.90
3017;DHT22;1518;52.408;13.060;2022-10-16T09:00:13;17.00;99.90
3017;DHT22;1518;52.408;13.060;2022-10-16T09:03:10;17.00;99.90
3017;DHT22;1518;52.408;13.060;2022-10-16T09:06:21;17.10;99.90
3017;DHT22;1518;52.408;13.060;2022-10-16T09:09:24;17.10;99.90
3017;DHT22;1518;52.408;13.060;2022-10-16T09:12:20;17.20;99.90
3017;DHT22;1518;52.408;13.060;2022-10-16T09:15:17;17.30;99.90
3017;DHT22;1518;52.408;13.060;2022-10-16T09:18:14;17.30;99.90
3017;DHT22;1518;52.408;13.060;2022-10-16T09:21:10;17.40;99.90
3017;DHT22;1518;52.408;13.060;2022-10-16T09:24:09;17.50;99.90
3017;DHT22;1518;52.408;13.060;2022-10-16T09:26:58;17.50;99.90
3017;DHT22;1518;52.408;13.060;2022-10-16T09:29:46;17.50;99.90
3017;DHT22;1518;52.408;13.060;2022-10-16T09:32:34;17.50;99.90
3017;DHT22;1518;52.408;13.060;2022-10-16T09:35:27;17.50;99.90
3017;DHT22;1518;52.408;13.060;2022-10-16T09:38:24;17.60;99.90
3017;DHT22;1518;52.408;13.060;2022-10-16T09:41:16;17.60;99.90
3017;DHT22;1518;52.408;13.060;2022-10-16T09:44:13;17.60;99.90
3017;DHT22;1518;52.408;13.060;2022-10-16T09:47:05;17.60;99.90
3017;DHT22;1518;52.408;13.060;2022-10-16T09:49:55;17.60;99.90
3017;DHT22;1518;52.408;13.060;2022-10-16T09:52:44;17.60;99.90
3017;DHT22;1518;52.408;13.060;2022-10-16T09:55:34;17.70;99.90
3017;DHT22;1518;52.408;13.060;2022-10-16T09:58:22;17.90;99.90
3017;DHT22;1518;52.408;13.060;2022-10-16T10:01:13;17.90;99.90
3017;DHT22;1518;52.408;13.060;2022-10-16T10:04:02;18.10;99.90
3017;DHT22;1518;52.408;13.060;2022-10-16T10:06:51;18.20;99.90
3017;DHT22;1518;52.408;13.060;2022-10-16T10:09:44;18.20;99.90
3017;DHT22;1518;52.408;13.060;2022-10-16T10:12:35;18.30;99.90
3017;DHT22;1518;52.408;13.060;2022-10-16T10:15:24;18.30;99.90
3017;DHT22;1518;52.408;13.060;2022-10-16T10:18:18;18.30;99.90
3017;DHT22;1518;52.408;13.060;2022-10-16T10:21:14;18.30;99.90
3017;DHT22;1518;52.408;13.060;2022-10-16T10:24:03;18.30;99.90
3017;DHT22;1518;52.408;13.060;2022-10-16T10:26:57;18.30;99.90
3017;DHT22;1518;52.408;13.060;2022-10-16T10:29:55;18.40;99.90
3017;DHT22;1518;52.408;13.060;2022-10-16T10:32:49;18.40;99.90
3017;DHT22;1518;52.408;13.060;2022-10-16T10:35:45;18.50;99.90
3017;DHT22;1518;52.408;13.060;2022-10-16T10:38:43;18.50;99.90
3017;DHT22;1518;52.408;13.060;2022-10-16T10:41:58;18.60;99.90
3017;DHT22;1518;52.408;13.060;2022-10-16T10:45:16;18.70;99.90
3017;DHT22;1518;52.408;13.060;2022-10-16T10:48:19;18.80;99.90
3017;DHT22;1518;52.408;13.060;2022-10-16T10:51:13;18.90;99.90
3017;DHT22;1518;52.408;13.060;2022-10-16T10:54:14;18.90;99.90
3017;DHT22;1518;52.408;13.060;2022-10-16T10:57:10;18.90;99.90
3017;DHT22;1518;52.408;13.060;2022-10-16T11:00:10;18.90;99.90
3017;DHT22;1518;52.408;13.060;2022-10-16T11:03:12;19.10;99.90
3017;DHT22;1518;52.408;13.060;2022-10-16T11:06:05;19.20;99.90
3017;DHT22;1518;52.408;13.060;2022-10-16T11:09:00;19.20;99.90
3017;DHT22;1518;52.408;13.060;2022-10-16T11:11:54;19.30;99.90
3017;DHT22;1518;52.408;13.060;2022-10-16T11:14:47;19.30;99.90
3017;DHT22;1518;52.408;13.060;2022-10-16T11:17:40;19.40;99.90
3017;DHT22;1518;52.408;13.060;2022-10-16T11:20:32;19.30;99.90
3017;DHT22;1518;52.408;13.060;2022-10-16T11:23:26;19.20;99.90
3017;DHT22;1518;52.408;13.060;2022-10-16T11:26:20;19.10;99.90
3017;DHT22;1518;52.408;13.060;2022-10-16T11:29:13;19.00;99.90
3017;DHT22;1518;52.408;13.060;2022-10-16T11:32:10;19.00;99.90
3017;DHT22;1518;52.408;13.060;2022-10-16T11:35:08;18.90;99.90
3017;DHT22;1518;52.408;13.060;2022-10-16T11:38:03;18.90;99.90
3017;DHT22;1518;52.408;13.060;2022-10-16T11:41:01;19.00;99.90
3017;DHT22;1518;52.408;13.060;2022-10-16T11:43:58;18.90;99.90
3017;DHT22;1518;52.408;13.060;2022-10-16T11:46:52;18.80;99.90
3017;DHT22;1518;52.408;13.060;2022-10-16T11:50:02;18.80;99.90
3017;DHT22;1518;52.408;13.060;2022-10-16T11:52:57;18.70;99.90
3017;DHT22;1518;52.408;13.060;2022-10-16T11:55:49;18.70;99.90
3017;DHT22;1518;52.408;13.060;2022-10-16T11:58:44;18.80;99.90
3017;DHT22;1518;52.408;13.060;2022-10-16T12:01:40;18.80;99.90
3017;DHT22;1518;52.408;13.060;2022-10-16T12:04:34;18.80;99.90
3017;DHT22;1518;52.408;13.060;2022-10-16T12:07:32;18.80;99.90
3017;DHT22;1518;52.408;13.060;2022-10-16T12:10:24;18.70;99.90
3017;DHT22;1518;52.408;13.060;2022-10-16T12:13:32;18.70;99.90
3017;DHT22;1518;52.408;13.060;2022-10-16T12:16:22;18.80;99.90
3017;DHT22;1518;52.408;13.060;2022-10-16T12:19:12;18.80;99.90
3017;DHT22;1518;52.408;13.060;2022-10-16T12:22:02;18.90;99.90
3017;DHT22;1518;52.408;13.060;2022-10-16T12:24:51;19.00;99.90
3017;DHT22;1518;52.408;13.060;2022-10-16T12:27:40;19.10;99.90
3017;DHT22;1518;52.408;13.060;2022-10-16T12:30:31;19.20;99.90
3017;DHT22;1518;52.408;13.060;2022-10-16T12:33:24;19.20;99.90
3017;DHT22;1518;52.408;13.060;2022-10-16T12:36:15;19.30;99.90
3017;DHT22;1518;52.408;13.060;2022-10-16T12:39:20;19.30;99.90
3017;DHT22;1518;52.408;13.060;2022-10-16T12:42:31;19.50;99.90
3017;DHT22;1518;52.408;13.060;2022-10-16T12:45:26;19.60;99.90
3017;DHT22;1518;52.408;13.060;2022-10-16T12:48:21;19.70;99.90
3017;DHT22;1518;52.408;13.060;2022-10-16T12:51:24;19.60;99.90
3017;DHT22;1518;52.408;13.060;2022-10-16T12:54:15;19.50;99.90
3017;DHT22;1518;52.408;13.060;2022-10-16T12:57:21;19.40;99.90
3017;DHT22;1518;52.408;13.060;2022-10-16T13:00:20;19.40;99.90
3017;DHT22;1518;52.408;13.060;2022-10-16T13:03:44;19.40;99.90
3017;DHT22;1518;52.408;13.060;2022-10-16T13:06:38;19.40;99.90
3017;DHT22;1518;52.408;13.060;2022-10-16T13:09:38;19.50;99.90
3017;DHT22;1518;52.408;13.060;2022-10-16T13:12:41;19.50;99.90
3017;DHT22;1518;52.408;13.060;2022-10-16T13:15:41;19.50;99.90
3017;DHT22;1518;52.408;13.060;2022-10-16T13:18:43;19.60;99.90
3017;DHT22;1518;52.408;13.060;2022-10-16T13:21:39;19.60;99.90
3017;DHT22;1518;52.408;13.060;2022-10-16T13:24:42;19.80;99.90
3017;DHT22;1518;52.408;13.060;2022-10-16T13:27:41;20.00;99.90
3017;DHT22;1518;52.408;13.060;2022-10-16T13:30:37;20.10;99.90
3017;DHT22;1518;52.408;13.060;2022-10-16T13:33:32;20.20;99.90
3017;DHT22;1518;52.408;13.060;2022-10-16T13:36:24;20.40;99.90
3017;DHT22;1518;52.408;13.060;2022-10-16T13:39:15;20.50;99.90
3017;DHT22;1518;52.408;13.060;2022-10-16T13:42:06;20.50;99.90
3017;DHT22;1518;52.408;13.060;2022-10-16T13:44:56;20.60;99.90
3017;DHT22;1518;52.408;13.060;2022-10-16T13:47:44;20.70;99.90
3017;DHT22;1518;52.408;13.060;2022-10-16T13:50:32;20.80;99.90
3017;DHT22;1518;52.408;13.060;2022-10-16T13:53:21;21.20;99.90
3017;DHT22;1518;52.408;13.060;2022-10-16T13:56:13;22.00;99.90
3017;DHT22;1518;52.408;13.060;2022-10-16T13:59:02;22.80;99.90
3017;DHT22;1518;52.408;13.060;2022-10-16T14:01:53;23.80;99.90
3017;DHT22;1518;52.408;13.060;2022-10-16T14:04:42;24.50;99.90
3017;DHT22;1518;52.408;13.060;2022-10-16T14:07:31;24.90;99.90
3017;DHT22;1518;52.408;13.060;2022-10-16T14:10:23;24.70;99.90
3017;DHT22;1518;52.408;13.060;2022-10-16T14:13:16;24.30;99.90
3017;DHT22;1518;52.408;13.060;2022-10-16T14:16:07;23.60;99.90
3017;DHT22;1518;52.408;13.060;2022-10-16T14:18:58;23.40;99.90
3017;DHT22;1518;52.408;13.060;2022-10-16T14:21:47;23.60;99.90
3017;DHT22;1518;52.408;13.060;2022-10-16T14:24:36;24.10;99.90
3017;DHT22;1518;52.408;13.060;2022-10-16T14:27:29;25.10;99.90
3017;DHT22;1518;52.408;13.060;2022-10-16T14:30:19;26.10;99.90
3017;DHT22;1518;52.408;13.060;2022-10-16T14:33:21;26.90;99.90
3017;DHT22;1518;52.408;13.060;2022-10-16T14:36:12;26.70;99.90
3017;DHT22;1518;52.408;13.060;2022-10-16T14:39:04;25.40;99.90
3017;DHT22;1518;52.408;13.060;2022-10-16T14:41:55;24.10;99.90
3017;DHT22;1518;52.408;13.060;2022-10-16T14:44:46;23.50;99.90
3017;DHT22;1518;52.408;13.060;2022-10-16T14:47:36;23.40;99.90
3017;DHT22;1518;52.408;13.060;2022-10-16T14:50:25;22.70;99.90
3017;DHT22;1518;52.408;13.060;2022-10-16T14:53:14;22.20;99.90
3017;DHT22;1518;52.408;13.060;2022-10-16T14:56:06;21.70;99.90
3017;DHT22;1518;52.408;13.060;2022-10-16T14:58:55;21.20;99.90
3017;DHT22;1518;52.408;13.060;2022-10-16T15:01:45;21.00;99.90
3017;DHT22;1518;52.408;13.060;2022-10-16T15:04:33;20.60;99.90
3017;DHT22;1518;52.408;13.060;2022-10-16T15:07:21;20.30;99.90
3017;DHT22;1518;52.408;13.060;2022-10-16T15:10:10;20.30;99.90
3017;DHT22;1518;52.408;13.060;2022-10-16T15:12:58;20.10;99.90
3017;DHT22;1518;52.408;13.060;2022-10-16T15:15:46;20.10;99.90
3017;DHT22;1518;52.408;13.060;2022-10-16T15:18:37;20.00;99.90
3017;DHT22;1518;52.408;13.060;2022-10-16T15:21:27;19.70;99.90
3017;DHT22;1518;52.408;13.060;2022-10-16T15:24:16;19.90;99.90
3017;DHT22;1518;52.408;13.060;2022-10-16T15:27:07;19.70;99.90
3017;DHT22;1518;52.408;13.060;2022-10-16T15:29:55;19.40;99.90
3017;DHT22;1518;52.408;13.060;2022-10-16T15:32:43;19.30;99.90
3017;DHT22;1518;52.408;13.060;2022-10-16T15:35:32;19.40;99.90
3017;DHT22;1518;52.408;13.060;2022-10-16T15:38:22;19.40;99.90
3017;DHT22;1518;52.408;13.060;2022-10-16T15:41:10;19.30;99.90
3017;DHT22;1518;52.408;13.060;2022-10-16T15:43:58;19.20;99.90
3017;DHT22;1518;52.408;13.060;2022-10-16T15:46:46;20.10;99.90
3017;DHT22;1518;52.408;13.060;2022-10-16T15:49:35;19.30;99.90
3017;DHT22;1518;52.408;13.060;2022-10-16T15:52:24;19.10;99.90
3017;DHT22;1518;52.408;13.060;2022-10-16T15:55:14;19.00;99.90
3017;DHT22;1518;52.408;13.060;2022-10-16T15:58:02;19.00;99.90
3017;DHT22;1518;52.408;13.060;2022-10-16T16:00:54;18.80;99.90
3017;DHT22;1518;52.408;13.060;2022-10-16T16:03:43;18.80;99.90
3017;DHT22;1518;52.408;13.060;2022-10-16T16:06:31;18.70;99.90
3017;DHT22;1518;52.408;13.060;2022-10-16T16:09:21;18.50;99.90
3017;DHT22;1518;52.408;13.060;2022-10-16T16:12:09;18.40;99.90
3017;DHT22;1518;52.408;13.060;2022-10-16T16:14:57;18.30;99.90
3017;DHT22;1518;52.408;13.060;2022-10-16T16:17:50;18.10;99.90
3017;DHT22;1518;52.408;13.060;2022-10-16T16:20:38;18.00;99.90
3017;DHT22;1518;52.408;13.060;2022-10-16T16:23:27;17.90;99.90
3017;DHT22;1518;52.408;13.060;2022-10-16T16:26:23;17.70;99.90
3017;DHT22;1518;52.408;13.060;2022-10-16T16:29:14;17.60;99.90
3017;DHT22;1518;52.408;13.060;2022-10-16T16:32:02;17.40;99.90
3017;DHT22;1518;52.408;13.060;2022-10-16T16:34:50;17.40;99.90
3017;DHT22;1518;52.408;13.060;2022-10-16T16:37:38;17.20;99.90
3017;DHT22;1518;52.408;13.060;2022-10-16T16:40:26;17.10;99.90
3017;DHT22;1518;52.408;13.060;2022-10-16T16:43:16;17.00;99.90
3017;DHT22;1518;52.408;13.060;2022-10-16T16:46:04;16.90;99.90
3017;DHT22;1518;52.408;13.060;2022-10-16T16:48:52;16.80;99.90
3017;DHT22;1518;52.408;13.060;2022-10-16T16:51:42;16.70;99.90
3017;DHT22;1518;52.408;13.060;2022-10-16T16:54:30;16.70;99.90
3017;DHT22;1518;52.408;13.060;2022-10-16T16:57:23;16.60;99.90
3017;DHT22;1518;52.408;13.060;2022-10-16T17:00:14;16.50;99.90
3017;DHT22;1518;52.408;13.060;2022-10-16T17:03:02;16.40;99.90
3017;DHT22;1518;52.408;13.060;2022-10-16T17:06:00;16.30;99.90
3017;DHT22;1518;52.408;13.060;2022-10-16T17:08:49;16.20;99.90
3017;DHT22;1518;52.408;13.060;2022-10-16T17:11:37;16.20;99.90
3017;DHT22;1518;52.408;13.060;2022-10-16T17:14:28;16.20;99.90
3017;DHT22;1518;52.408;13.060;2022-10-16T17:17:17;15.90;99.90
3017;DHT22;1518;52.408;13.060;2022-10-16T17:20:06;15.90;99.90
3017;DHT22;1518;52.408;13.060;2022-10-16T17:22:55;15.90;99.90
3017;DHT22;1518;52.408;13.060;2022-10-16T17:25:44;15.80;99.90
3017;DHT22;1518;52.408;13.060;2022-10-16T17:28:32;15.80;99.90
3017;DHT22;1518;52.408;13.060;2022-10-16T17:31:22;15.70;99.90
3017;DHT22;1518;52.408;13.060;2022-10-16T17:34:12;15.60;99.90
3017;DHT22;1518;52.408;13.060;2022-10-16T17:37:00;15.50;99.90
3017;DHT22;1518;52.408;13.060;2022-10-16T17:39:49;15.30;99.90
3017;DHT22;1518;52.408;13.060;2022-10-16T17:42:38;15.40;99.90
3017;DHT22;1518;52.408;13.060;2022-10-16T17:45:26;15.40;99.90
3017;DHT22;1518;52.408;13.060;2022-10-16T17:48:14;15.40;99.90
3017;DHT22;1518;52.408;13.060;2022-10-16T17:51:04;15.40;99.90
3017;DHT22;1518;52.408;13.060;2022-10-16T17:53:54;15.20;99.90
3017;DHT22;1518;52.408;13.060;2022-10-16T17:56:43;15.10;99.90
3017;DHT22;1518;52.408;13.060;2022-10-16T17:59:31;15.20;99.90
3017;DHT22;1518;52.408;13.060;2022-10-16T18:02:19;15.30;99.90
3017;DHT22;1518;52.408;13.060;2022-10-16T18:05:07;15.10;99.90
3017;DHT22;1518;52.408;13.060;2022-10-16T18:07:58;15.10;99.90
3017;DHT22;1518;52.408;13.060;2022-10-16T18:10:47;15.00;99.90
3017;DHT22;1518;52.408;13.060;2022-10-16T18:13:36;14.20;99.90
3017;DHT22;1518;52.408;13.060;2022-10-16T18:16:24;14.80;99.90
3017;DHT22;1518;52.408;13.060;2022-10-16T18:19:13;15.00;99.90